CheckWX is a tool to help pilots better visualize weather data.  It is not intended as a substitute for an official pre-flight weather briefing.

03:23:26 UTC

KGEG TAF
Spokane International Airport
Spokane, Washington, USA
KGEG 092336Z 1000/1024 VRB04KT P6SM BKN007 FM100600 09004KT 3SM BR OVC005 FM101200 VRB03KT 1/2SM FZFG OVC002 FM101800 10004KT 2SM BR OVC005 FM102100 09004KT 5SM BR OVC015

Dec-10@
00:00 UTC

Dec-10 @ 00:00 UTC

Dec-10@
06:00 UTC

Dec-10 @ 06:00 UTC

KGEG 092336Z 1000/1024 VRB04KT P6SM BKN007
Wind
  • Variable at 4 KTS
Cloud Levels
  • Broken at 700' AGL

Dec-10@
06:00 UTC

Dec-10 @ 06:00 UTC

Dec-10@
12:00 UTC

Dec-10 @ 12:00 UTC

FM100600 09004KT 3SM BR OVC005

From

From Standard forecast or significant change

Wind
  • 090° at 4 KTS
Conditions
Mist
Cloud Levels
  • Overcast at 500' AGL

Dec-10@
12:00 UTC

Dec-10 @ 12:00 UTC

Dec-10@
18:00 UTC

Dec-10 @ 18:00 UTC

FM101200 VRB03KT 1/2SM FZFG OVC002

From

From Standard forecast or significant change

Wind
  • Variable at 3 KTS
Conditions
Freezing Fog
Cloud Levels
  • Overcast at 200' AGL

Dec-10@
18:00 UTC

Dec-10 @ 18:00 UTC

Dec-10@
21:00 UTC

Dec-10 @ 21:00 UTC

FM101800 10004KT 2SM BR OVC005

From

From Standard forecast or significant change

Wind
  • 100° at 4 KTS
Conditions
Mist
Cloud Levels
  • Overcast at 500' AGL

Dec-10@
21:00 UTC

Dec-10 @ 21:00 UTC

Dec-11@
00:00 UTC

Dec-11 @ 00:00 UTC

FM102100 09004KT 5SM BR OVC015

From

From Standard forecast or significant change

Wind
  • 090° at 4 KTS
Conditions
Mist
Cloud Levels
  • Overcast at 1,500' AGL